sensor_id;sensor_type;location;lat;lon;timestamp;pressure;altitude;pressure_sealevel;temperature;humidity
19827;BME280;10074;52.018;4.726;2023-01-26T00:01:43;46351.59;;;-144.79;100.00
19827;BME280;10074;52.018;4.726;2023-01-26T00:06:44;46319.50;;;-144.79;100.00
19827;BME280;10074;52.018;4.726;2023-01-26T00:11:44;46321.50;;;-144.79;100.00
19827;BME280;10074;52.018;4.726;2023-01-26T00:16:45;46351.59;;;-144.79;100.00
19827;BME280;10074;52.018;4.726;2023-01-26T00:21:45;46323.53;;;-144.79;100.00
19827;BME280;10074;52.018;4.726;2023-01-26T00:26:45;46323.53;;;-144.79;100.00
19827;BME280;10074;52.018;4.726;2023-01-26T00:31:46;46319.50;;;-144.79;100.00
19827;BME280;10074;52.018;4.726;2023-01-26T00:36:46;46323.53;;;-144.79;100.00
19827;BME280;10074;52.018;4.726;2023-01-26T00:41:46;46329.53;;;-144.79;100.00
19827;BME280;10074;52.018;4.726;2023-01-26T00:47:06;46321.50;;;-144.79;100.00
19827;BME280;10074;52.018;4.726;2023-01-26T00:52:07;46323.53;;;-144.79;100.00
19827;BME280;10074;52.018;4.726;2023-01-26T00:57:08;46325.53;;;-144.79;100.00
19827;BME280;10074;52.018;4.726;2023-01-26T01:02:08;46323.53;;;-144.79;100.00
19827;BME280;10074;52.018;4.726;2023-01-26T01:07:09;46351.59;;;-144.79;100.00
19827;BME280;10074;52.018;4.726;2023-01-26T01:12:09;46351.59;;;-144.79;100.00
19827;BME280;10074;52.018;4.726;2023-01-26T01:17:09;46325.53;;;-144.79;100.00
19827;BME280;10074;52.018;4.726;2023-01-26T01:22:10;46327.53;;;-144.79;100.00
19827;BME280;10074;52.018;4.726;2023-01-26T01:27:10;46351.59;;;-144.79;100.00
19827;BME280;10074;52.018;4.726;2023-01-26T01:32:10;46327.53;;;-144.79;100.00
19827;BME280;10074;52.018;4.726;2023-01-26T01:37:11;46321.50;;;-144.79;100.00
19827;BME280;10074;52.018;4.726;2023-01-26T01:42:12;46321.50;;;-144.79;100.00
19827;BME280;10074;52.018;4.726;2023-01-26T01:47:21;46329.53;;;-144.79;100.00
19827;BME280;10074;52.018;4.726;2023-01-26T01:52:29;46351.59;;;-144.79;100.00
19827;BME280;10074;52.018;4.726;2023-01-26T01:57:34;46323.53;;;-144.79;100.00
19827;BME280;10074;52.018;4.726;2023-01-26T02:02:45;46327.53;;;-144.79;100.00
19827;BME280;10074;52.018;4.726;2023-01-26T02:08:12;46329.53;;;-144.79;100.00
19827;BME280;10074;52.018;4.726;2023-01-26T02:13:15;46325.53;;;-144.79;100.00
19827;BME280;10074;52.018;4.726;2023-01-26T02:18:17;46329.53;;;-144.79;100.00
19827;BME280;10074;52.018;4.726;2023-01-26T02:23:42;46327.53;;;-144.79;100.00
19827;BME280;10074;52.018;4.726;2023-01-26T02:28:46;46331.53;;;-144.79;100.00
19827;BME280;10074;52.018;4.726;2023-01-26T02:33:46;46327.53;;;-144.79;100.00
19827;BME280;10074;52.018;4.726;2023-01-26T02:39:28;46323.53;;;-144.79;100.00
19827;BME280;10074;52.018;4.726;2023-01-26T02:44:33;46329.53;;;-144.79;100.00
19827;BME280;10074;52.018;4.726;2023-01-26T02:49:34;46327.53;;;-144.79;100.00
19827;BME280;10074;52.018;4.726;2023-01-26T02:54:46;46331.53;;;-144.79;100.00
19827;BME280;10074;52.018;4.726;2023-01-26T03:00:12;46327.53;;;-144.79;100.00
19827;BME280;10074;52.018;4.726;2023-01-26T03:05:14;46327.53;;;-144.79;100.00
19827;BME280;10074;52.018;4.726;2023-01-26T03:10:15;46331.53;;;-144.79;100.00
19827;BME280;10074;52.018;4.726;2023-01-26T03:15:15;46327.53;;;-144.79;100.00
19827;BME280;10074;52.018;4.726;2023-01-26T03:20:42;46339.56;;;-144.79;100.00
19827;BME280;10074;52.018;4.726;2023-01-26T03:26:00;46327.53;;;-144.79;100.00
19827;BME280;10074;52.018;4.726;2023-01-26T03:31:20;46331.53;;;-144.79;100.00
19827;BME280;10074;52.018;4.726;2023-01-26T03:36:20;46327.53;;;-144.79;100.00
19827;BME280;10074;52.018;4.726;2023-01-26T03:41:20;46331.53;;;-144.79;100.00
19827;BME280;10074;52.018;4.726;2023-01-26T03:46:39;46323.53;;;-144.79;100.00
19827;BME280;10074;52.018;4.726;2023-01-26T03:51:58;46327.53;;;-144.79;100.00
19827;BME280;10074;52.018;4.726;2023-01-26T03:57:17;46331.53;;;-144.79;100.00
19827;BME280;10074;52.018;4.726;2023-01-26T04:02:17;46327.53;;;-144.79;100.00
19827;BME280;10074;52.018;4.726;2023-01-26T04:07:37;46337.56;;;-144.79;100.00
19827;BME280;10074;52.018;4.726;2023-01-26T04:12:56;46331.53;;;-144.79;100.00
19827;BME280;10074;52.018;4.726;2023-01-26T04:18:15;46335.53;;;-144.79;100.00
19827;BME280;10074;52.018;4.726;2023-01-26T04:23:35;46333.53;;;-144.79;100.00
19827;BME280;10074;52.018;4.726;2023-01-26T04:28:35;46335.53;;;-144.79;100.00
19827;BME280;10074;52.018;4.726;2023-01-26T04:33:36;46329.53;;;-144.79;100.00
19827;BME280;10074;52.018;4.726;2023-01-26T04:38:36;46331.53;;;-144.79;100.00
19827;BME280;10074;52.018;4.726;2023-01-26T04:43:36;46333.53;;;-144.79;100.00
19827;BME280;10074;52.018;4.726;2023-01-26T04:48:37;46335.53;;;-144.79;100.00
19827;BME280;10074;52.018;4.726;2023-01-26T04:53:37;46329.53;;;-144.79;100.00
19827;BME280;10074;52.018;4.726;2023-01-26T04:58:38;46329.53;;;-144.79;100.00
19827;BME280;10074;52.018;4.726;2023-01-26T05:03:38;46327.53;;;-144.79;100.00
19827;BME280;10074;52.018;4.726;2023-01-26T05:08:39;46335.53;;;-144.79;100.00
19827;BME280;10074;52.018;4.726;2023-01-26T05:13:39;46331.53;;;-144.79;100.00
19827;BME280;10074;52.018;4.726;2023-01-26T05:18:40;46327.53;;;-144.79;100.00
19827;BME280;10074;52.018;4.726;2023-01-26T05:23:41;46329.53;;;-144.79;100.00
19827;BME280;10074;52.018;4.726;2023-01-26T05:28:41;46331.53;;;-144.79;100.00
19827;BME280;10074;52.018;4.726;2023-01-26T05:33:41;46335.53;;;-144.79;100.00
19827;BME280;10074;52.018;4.726;2023-01-26T05:38:42;46337.56;;;-144.79;100.00
19827;BME280;10074;52.018;4.726;2023-01-26T05:43:42;46339.56;;;-144.79;100.00
19827;BME280;10074;52.018;4.726;2023-01-26T05:48:42;46339.56;;;-144.79;100.00
19827;BME280;10074;52.018;4.726;2023-01-26T05:53:43;46331.53;;;-144.79;100.00
19827;BME280;10074;52.018;4.726;2023-01-26T05:58:43;46333.53;;;-144.79;100.00
19827;BME280;10074;52.018;4.726;2023-01-26T06:03:43;46329.53;;;-144.79;100.00
19827;BME280;10074;52.018;4.726;2023-01-26T06:08:44;46331.53;;;-144.79;100.00
19827;BME280;10074;52.018;4.726;2023-01-26T06:13:44;46335.53;;;-144.79;100.00
19827;BME280;10074;52.018;4.726;2023-01-26T06:18:47;46339.56;;;-144.79;100.00
19827;BME280;10074;52.018;4.726;2023-01-26T06:23:48;46335.53;;;-144.79;100.00
19827;BME280;10074;52.018;4.726;2023-01-26T06:28:49;46333.53;;;-144.79;100.00
19827;BME280;10074;52.018;4.726;2023-01-26T06:33:49;46343.56;;;-144.79;100.00
19827;BME280;10074;52.018;4.726;2023-01-26T06:38:50;46347.56;;;-144.79;100.00
19827;BME280;10074;52.018;4.726;2023-01-26T06:43:54;46349.59;;;-144.79;100.00
19827;BME280;10074;52.018;4.726;2023-01-26T06:48:54;46343.56;;;-144.79;100.00
19827;BME280;10074;52.018;4.726;2023-01-26T06:53:56;46353.59;;;-144.79;100.00
19827;BME280;10074;52.018;4.726;2023-01-26T06:58:56;46349.59;;;-144.79;100.00
19827;BME280;10074;52.018;4.726;2023-01-26T07:03:57;46345.56;;;-144.79;100.00
19827;BME280;10074;52.018;4.726;2023-01-26T07:08:57;46347.56;;;-144.79;100.00
19827;BME280;10074;52.018;4.726;2023-01-26T07:13:58;46335.53;;;-144.79;100.00
19827;BME280;10074;52.018;4.726;2023-01-26T07:18:58;46283.41;;;-144.79;100.00
19827;BME280;10074;52.018;4.726;2023-01-26T07:23:58;46281.41;;;-144.79;100.00
19827;BME280;10074;52.018;4.726;2023-01-26T07:28:59;46267.38;;;-144.79;100.00
19827;BME280;10074;52.018;4.726;2023-01-26T07:33:59;46257.34;;;-144.79;100.00
19827;BME280;10074;52.018;4.726;2023-01-26T07:38:59;46255.34;;;-144.79;100.00
19827;BME280;10074;52.018;4.726;2023-01-26T07:44:00;46257.34;;;-144.79;100.00
19827;BME280;10074;52.018;4.726;2023-01-26T07:49:00;46239.31;;;-144.79;100.00
19827;BME280;10074;52.018;4.726;2023-01-26T07:54:01;46237.31;;;-144.79;100.00
19827;BME280;10074;52.018;4.726;2023-01-26T07:59:01;46231.28;;;-144.79;100.00
19827;BME280;10074;52.018;4.726;2023-01-26T08:04:02;46227.28;;;-144.79;100.00
19827;BME280;10074;52.018;4.726;2023-01-26T08:09:02;46223.25;;;-144.79;100.00
19827;BME280;10074;52.018;4.726;2023-01-26T08:14:02;46235.28;;;-144.79;100.00
19827;BME280;10074;52.018;4.726;2023-01-26T08:19:03;46219.25;;;-144.79;100.00
19827;BME280;10074;52.018;4.726;2023-01-26T08:24:03;46207.22;;;-144.79;100.00
19827;BME280;10074;52.018;4.726;2023-01-26T08:29:04;46215.25;;;-144.79;100.00
19827;BME280;10074;52.018;4.726;2023-01-26T08:34:04;46219.25;;;-144.79;100.00
19827;BME280;10074;52.018;4.726;2023-01-26T08:39:04;46227.28;;;-144.79;100.00
19827;BME280;10074;52.018;4.726;2023-01-26T08:44:05;46227.28;;;-144.79;100.00
19827;BME280;10074;52.018;4.726;2023-01-26T08:49:06;46243.31;;;-144.79;100.00
19827;BME280;10074;52.018;4.726;2023-01-26T08:54:06;46253.34;;;-144.79;100.00
19827;BME280;10074;52.018;4.726;2023-01-26T08:59:09;46251.34;;;-144.79;100.00
19827;BME280;10074;52.018;4.726;2023-01-26T09:04:10;46247.31;;;-144.79;100.00
19827;BME280;10074;52.018;4.726;2023-01-26T09:09:10;46257.34;;;-144.79;100.00
19827;BME280;10074;52.018;4.726;2023-01-26T09:14:13;46259.34;;;-144.79;100.00
19827;BME280;10074;52.018;4.726;2023-01-26T09:19:13;46263.38;;;-144.79;100.00
19827;BME280;10074;52.018;4.726;2023-01-26T09:24:14;46267.38;;;-144.79;100.00
19827;BME280;10074;52.018;4.726;2023-01-26T09:29:15;46263.38;;;-144.79;100.00
19827;BME280;10074;52.018;4.726;2023-01-26T09:34:15;46259.34;;;-144.79;100.00
19827;BME280;10074;52.018;4.726;2023-01-26T09:39:15;46259.34;;;-144.79;100.00
19827;BME280;10074;52.018;4.726;2023-01-26T09:44:23;46263.38;;;-144.79;100.00
19827;BME280;10074;52.018;4.726;2023-01-26T09:59:56;46265.38;;;-144.79;100.00
19827;BME280;10074;52.018;4.726;2023-01-26T10:05:02;46253.34;;;-144.79;100.00
19827;BME280;10074;52.018;4.726;2023-01-26T10:10:04;46247.31;;;-144.79;100.00
19827;BME280;10074;52.018;4.726;2023-01-26T10:15:06;46249.34;;;-144.79;100.00
19827;BME280;10074;52.018;4.726;2023-01-26T10:25:41;46255.34;;;-144.79;100.00
19827;BME280;10074;52.018;4.726;2023-01-26T10:30:43;46239.31;;;-144.79;100.00
19827;BME280;10074;52.018;4.726;2023-01-26T10:35:44;46255.34;;;-144.79;100.00
19827;BME280;10074;52.018;4.726;2023-01-26T11:00:54;46283.41;;;-144.79;100.00
19827;BME280;10074;52.018;4.726;2023-01-26T11:06:16;46273.38;;;-144.79;100.00
19827;BME280;10074;52.018;4.726;2023-01-26T11:11:26;46283.41;;;-144.79;100.00
19827;BME280;10074;52.018;4.726;2023-01-26T11:16:29;46287.44;;;-144.79;100.00
19827;BME280;10074;52.018;4.726;2023-01-26T11:21:47;46287.44;;;-144.79;100.00
19827;BME280;10074;52.018;4.726;2023-01-26T11:27:20;46295.44;;;-144.79;100.00
19827;BME280;10074;52.018;4.726;2023-01-26T11:32:37;46293.44;;;-144.79;100.00
19827;BME280;10074;52.018;4.726;2023-01-26T11:37:50;46299.47;;;-144.79;100.00
19827;BME280;10074;52.018;4.726;2023-01-26T11:43:17;46303.47;;;-144.79;100.00
19827;BME280;10074;52.018;4.726;2023-01-26T11:48:42;46309.47;;;-144.79;100.00
19827;BME280;10074;52.018;4.726;2023-01-26T11:59:14;46309.47;;;-144.79;100.00
19827;BME280;10074;52.018;4.726;2023-01-26T12:04:18;46313.50;;;-144.79;100.00
19827;BME280;10074;52.018;4.726;2023-01-26T12:09:23;46299.47;;;-144.79;100.00
19827;BME280;10074;52.018;4.726;2023-01-26T12:14:45;46299.47;;;-144.79;100.00
19827;BME280;10074;52.018;4.726;2023-01-26T12:20:35;46289.44;;;-144.79;100.00
19827;BME280;10074;52.018;4.726;2023-01-26T12:25:52;46309.47;;;-144.79;100.00
19827;BME280;10074;52.018;4.726;2023-01-26T12:36:11;46341.56;;;-144.79;100.00
19827;BME280;10074;52.018;4.726;2023-01-26T12:46:38;46315.50;;;-144.79;100.00
19827;BME280;10074;52.018;4.726;2023-01-26T12:51:47;46343.56;;;-144.79;100.00
19827;BME280;10074;52.018;4.726;2023-01-26T12:56:52;46375.66;;;-144.79;100.00
19827;BME280;10074;52.018;4.726;2023-01-26T13:01:54;46387.69;;;-144.79;100.00
19827;BME280;10074;52.018;4.726;2023-01-26T13:07:03;46381.66;;;-144.79;100.00
19827;BME280;10074;52.018;4.726;2023-01-26T13:12:43;46359.59;;;-144.79;100.00
19827;BME280;10074;52.018;4.726;2023-01-26T13:22:52;46285.41;;;-144.79;100.00
19827;BME280;10074;52.018;4.726;2023-01-26T13:28:01;46285.41;;;-144.79;100.00
19827;BME280;10074;52.018;4.726;2023-01-26T13:38:42;46277.41;;;-144.79;100.00
19827;BME280;10074;52.018;4.726;2023-01-26T13:43:48;46283.41;;;-144.79;100.00
19827;BME280;10074;52.018;4.726;2023-01-26T13:48:50;46279.41;;;-144.79;100.00
19827;BME280;10074;52.018;4.726;2023-01-26T13:54:11;46275.41;;;-144.79;100.00
19827;BME280;10074;52.018;4.726;2023-01-26T13:59:17;46287.44;;;-144.79;100.00
19827;BME280;10074;52.018;4.726;2023-01-26T14:04:20;46295.44;;;-144.79;100.00
19827;BME280;10074;52.018;4.726;2023-01-26T14:09:22;46293.44;;;-144.79;100.00
19827;BME280;10074;52.018;4.726;2023-01-26T14:14:30;46301.47;;;-144.79;100.00
19827;BME280;10074;52.018;4.726;2023-01-26T14:19:38;46317.50;;;-144.79;100.00
19827;BME280;10074;52.018;4.726;2023-01-26T14:24:39;46317.50;;;-144.79;100.00
19827;BME280;10074;52.018;4.726;2023-01-26T14:29:41;46355.59;;;-144.79;100.00
19827;BME280;10074;52.018;4.726;2023-01-26T14:34:52;46407.72;;;-144.79;100.00
19827;BME280;10074;52.018;4.726;2023-01-26T14:40:21;46415.75;;;-144.79;100.00
19827;BME280;10074;52.018;4.726;2023-01-26T14:45:29;46429.78;;;-144.79;100.00
19827;BME280;10074;52.018;4.726;2023-01-26T14:50:31;46447.84;;;-144.79;100.00
19827;BME280;10074;52.018;4.726;2023-01-26T14:55:33;46447.84;;;-144.79;100.00
19827;BME280;10074;52.018;4.726;2023-01-26T15:00:36;46459.88;;;-144.79;100.00
19827;BME280;10074;52.018;4.726;2023-01-26T15:05:38;46457.88;;;-144.79;100.00
19827;BME280;10074;52.018;4.726;2023-01-26T15:10:58;46461.88;;;-144.79;100.00
19827;BME280;10074;52.018;4.726;2023-01-26T15:16:20;46461.88;;;-144.79;100.00
19827;BME280;10074;52.018;4.726;2023-01-26T15:21:30;46455.84;;;-144.79;100.00
19827;BME280;10074;52.018;4.726;2023-01-26T15:26:33;46453.84;;;-144.79;100.00
19827;BME280;10074;52.018;4.726;2023-01-26T15:31:39;46447.84;;;-144.79;100.00
19827;BME280;10074;52.018;4.726;2023-01-26T15:36:47;46441.81;;;-144.79;100.00
19827;BME280;10074;52.018;4.726;2023-01-26T15:42:21;46431.78;;;-144.79;100.00
19827;BME280;10074;52.018;4.726;2023-01-26T15:47:23;46433.81;;;-144.79;100.00
19827;BME280;10074;52.018;4.726;2023-01-26T15:52:26;46437.81;;;-144.79;100.00
19827;BME280;10074;52.018;4.726;2023-01-26T15:57:29;46435.81;;;-144.79;100.00
19827;BME280;10074;52.018;4.726;2023-01-26T16:02:29;46443.81;;;-144.79;100.00
19827;BME280;10074;52.018;4.726;2023-01-26T16:07:30;46445.84;;;-144.79;100.00
19827;BME280;10074;52.018;4.726;2023-01-26T16:12:31;46445.84;;;-144.79;100.00
19827;BME280;10074;52.018;4.726;2023-01-26T16:17:31;46453.84;;;-144.79;100.00
19827;BME280;10074;52.018;4.726;2023-01-26T16:22:32;46447.84;;;-144.79;100.00
19827;BME280;10074;52.018;4.726;2023-01-26T16:27:33;46451.84;;;-144.79;100.00
19827;BME280;10074;52.018;4.726;2023-01-26T16:32:33;46465.88;;;-144.79;100.00
19827;BME280;10074;52.018;4.726;2023-01-26T16:37:33;46463.88;;;-144.79;100.00
19827;BME280;10074;52.018;4.726;2023-01-26T16:42:36;46461.88;;;-144.79;100.00
19827;BME280;10074;52.018;4.726;2023-01-26T16:47:38;46467.88;;;-144.79;100.00
19827;BME280;10074;52.018;4.726;2023-01-26T16:52:39;46467.88;;;-144.79;100.00
19827;BME280;10074;52.018;4.726;2023-01-26T16:57:41;46467.88;;;-144.79;100.00
19827;BME280;10074;52.018;4.726;2023-01-26T17:02:43;46465.88;;;-144.79;100.00
19827;BME280;10074;52.018;4.726;2023-01-26T17:07:46;46461.88;;;-144.79;100.00
19827;BME280;10074;52.018;4.726;2023-01-26T17:12:46;46465.88;;;-144.79;100.00
19827;BME280;10074;52.018;4.726;2023-01-26T17:17:50;46473.91;;;-144.79;100.00
19827;BME280;10074;52.018;4.726;2023-01-26T17:22:51;46463.88;;;-144.79;100.00
19827;BME280;10074;52.018;4.726;2023-01-26T17:27:51;46469.88;;;-144.79;100.00
19827;BME280;10074;52.018;4.726;2023-01-26T17:32:52;46467.88;;;-144.79;100.00
19827;BME280;10074;52.018;4.726;2023-01-26T17:37:53;46465.88;;;-144.79;100.00
19827;BME280;10074;52.018;4.726;2023-01-26T17:42:53;46467.88;;;-144.79;100.00
19827;BME280;10074;52.018;4.726;2023-01-26T17:47:54;46469.88;;;-144.79;100.00
19827;BME280;10074;52.018;4.726;2023-01-26T17:52:55;46467.88;;;-144.79;100.00
19827;BME280;10074;52.018;4.726;2023-01-26T17:57:55;46469.88;;;-144.79;100.00
19827;BME280;10074;52.018;4.726;2023-01-26T18:02:56;46469.88;;;-144.79;100.00
19827;BME280;10074;52.018;4.726;2023-01-26T18:07:57;46463.88;;;-144.79;100.00
19827;BME280;10074;52.018;4.726;2023-01-26T18:12:58;46469.88;;;-144.79;100.00
19827;BME280;10074;52.018;4.726;2023-01-26T18:17:58;46465.88;;;-144.79;100.00
19827;BME280;10074;52.018;4.726;2023-01-26T18:22:58;46461.88;;;-144.79;100.00
19827;BME280;10074;52.018;4.726;2023-01-26T18:27:59;46467.88;;;-144.79;100.00
19827;BME280;10074;52.018;4.726;2023-01-26T18:33:00;46467.88;;;-144.79;100.00
19827;BME280;10074;52.018;4.726;2023-01-26T18:38:00;46469.88;;;-144.79;100.00
19827;BME280;10074;52.018;4.726;2023-01-26T18:43:01;46473.91;;;-144.79;100.00
19827;BME280;10074;52.018;4.726;2023-01-26T18:48:01;46469.88;;;-144.79;100.00
19827;BME280;10074;52.018;4.726;2023-01-26T18:53:02;46465.88;;;-144.79;100.00
19827;BME280;10074;52.018;4.726;2023-01-26T18:58:03;46465.88;;;-144.79;100.00
19827;BME280;10074;52.018;4.726;2023-01-26T19:03:03;46471.91;;;-144.79;100.00
19827;BME280;10074;52.018;4.726;2023-01-26T19:08:04;46473.91;;;-144.79;100.00
19827;BME280;10074;52.018;4.726;2023-01-26T19:13:09;46469.88;;;-144.79;100.00
19827;BME280;10074;52.018;4.726;2023-01-26T19:18:10;46473.91;;;-144.79;100.00
19827;BME280;10074;52.018;4.726;2023-01-26T19:23:10;46471.91;;;-144.79;100.00
19827;BME280;10074;52.018;4.726;2023-01-26T19:28:11;46469.88;;;-144.79;100.00
19827;BME280;10074;52.018;4.726;2023-01-26T19:33:11;46475.91;;;-144.79;100.00
19827;BME280;10074;52.018;4.726;2023-01-26T19:38:24;46467.88;;;-144.79;100.00
19827;BME280;10074;52.018;4.726;2023-01-26T19:43:24;46475.91;;;-144.79;100.00
19827;BME280;10074;52.018;4.726;2023-01-26T19:48:26;46473.91;;;-144.79;100.00
19827;BME280;10074;52.018;4.726;2023-01-26T19:53:28;46471.91;;;-144.79;100.00
19827;BME280;10074;52.018;4.726;2023-01-26T19:58:29;46471.91;;;-144.79;100.00
19827;BME280;10074;52.018;4.726;2023-01-26T20:03:29;46471.91;;;-144.79;100.00
19827;BME280;10074;52.018;4.726;2023-01-26T20:08:30;46475.91;;;-144.79;100.00
19827;BME280;10074;52.018;4.726;2023-01-26T20:13:31;46471.91;;;-144.79;100.00
19827;BME280;10074;52.018;4.726;2023-01-26T20:18:34;46471.91;;;-144.79;100.00
19827;BME280;10074;52.018;4.726;2023-01-26T20:23:35;46475.91;;;-144.79;100.00
19827;BME280;10074;52.018;4.726;2023-01-26T20:28:37;46469.88;;;-144.79;100.00
19827;BME280;10074;52.018;4.726;2023-01-26T20:33:39;46467.88;;;-144.79;100.00
19827;BME280;10074;52.018;4.726;2023-01-26T20:38:39;46477.91;;;-144.79;100.00
19827;BME280;10074;52.018;4.726;2023-01-26T20:43:40;46471.91;;;-144.79;100.00
19827;BME280;10074;52.018;4.726;2023-01-26T20:48:40;46471.91;;;-144.79;100.00
19827;BME280;10074;52.018;4.726;2023-01-26T20:53:41;46471.91;;;-144.79;100.00
19827;BME280;10074;52.018;4.726;2023-01-26T20:58:42;46471.91;;;-144.79;100.00
19827;BME280;10074;52.018;4.726;2023-01-26T21:03:43;46471.91;;;-144.79;100.00
19827;BME280;10074;52.018;4.726;2023-01-26T21:08:47;46473.91;;;-144.79;100.00
19827;BME280;10074;52.018;4.726;2023-01-26T21:13:48;46475.91;;;-144.79;100.00
19827;BME280;10074;52.018;4.726;2023-01-26T21:18:49;46475.91;;;-144.79;100.00
19827;BME280;10074;52.018;4.726;2023-01-26T21:23:50;46469.88;;;-144.79;100.00
19827;BME280;10074;52.018;4.726;2023-01-26T21:28:53;46475.91;;;-144.79;100.00
19827;BME280;10074;52.018;4.726;2023-01-26T21:33:55;46477.91;;;-144.79;100.00
19827;BME280;10074;52.018;4.726;2023-01-26T21:38:57;46475.91;;;-144.79;100.00
19827;BME280;10074;52.018;4.726;2023-01-26T21:44:03;46471.91;;;-144.79;100.00
19827;BME280;10074;52.018;4.726;2023-01-26T21:49:05;46471.91;;;-144.79;100.00
19827;BME280;10074;52.018;4.726;2023-01-26T21:54:06;46473.91;;;-144.79;100.00
19827;BME280;10074;52.018;4.726;2023-01-26T21:59:09;46473.91;;;-144.79;100.00
19827;BME280;10074;52.018;4.726;2023-01-26T22:04:13;46473.91;;;-144.79;100.00
19827;BME280;10074;52.018;4.726;2023-01-26T22:09:15;46471.91;;;-144.79;100.00
19827;BME280;10074;52.018;4.726;2023-01-26T22:14:19;46475.91;;;-144.79;100.00
19827;BME280;10074;52.018;4.726;2023-01-26T22:19:20;46469.88;;;-144.79;100.00
19827;BME280;10074;52.018;4.726;2023-01-26T22:24:21;46473.91;;;-144.79;100.00
19827;BME280;10074;52.018;4.726;2023-01-26T22:29:21;46475.91;;;-144.79;100.00
19827;BME280;10074;52.018;4.726;2023-01-26T22:34:21;46473.91;;;-144.79;100.00
19827;BME280;10074;52.018;4.726;2023-01-26T22:39:22;46469.88;;;-144.79;100.00
19827;BME280;10074;52.018;4.726;2023-01-26T22:44:22;46467.88;;;-144.79;100.00
19827;BME280;10074;52.018;4.726;2023-01-26T22:49:22;46475.91;;;-144.79;100.00
19827;BME280;10074;52.018;4.726;2023-01-26T22:54:23;46475.91;;;-144.79;100.00
19827;BME280;10074;52.018;4.726;2023-01-26T22:59:24;46471.91;;;-144.79;100.00
19827;BME280;10074;52.018;4.726;2023-01-26T23:04:24;46471.91;;;-144.79;100.00
19827;BME280;10074;52.018;4.726;2023-01-26T23:09:25;46475.91;;;-144.79;100.00
19827;BME280;10074;52.018;4.726;2023-01-26T23:14:25;46477.91;;;-144.79;100.00
19827;BME280;10074;52.018;4.726;2023-01-26T23:19:26;46475.91;;;-144.79;100.00
19827;BME280;10074;52.018;4.726;2023-01-26T23:24:26;46473.91;;;-144.79;100.00
19827;BME280;10074;52.018;4.726;2023-01-26T23:29:26;46471.91;;;-144.79;100.00
19827;BME280;10074;52.018;4.726;2023-01-26T23:34:27;46473.91;;;-144.79;100.00
19827;BME280;10074;52.018;4.726;2023-01-26T23:39:27;46475.91;;;-144.79;100.00
19827;BME280;10074;52.018;4.726;2023-01-26T23:44:27;46473.91;;;-144.79;100.00
19827;BME280;10074;52.018;4.726;2023-01-26T23:49:28;46473.91;;;-144.79;100.00
19827;BME280;10074;52.018;4.726;2023-01-26T23:54:28;46475.91;;;-144.79;100.00
19827;BME280;10074;52.018;4.726;2023-01-26T23:59:29;46471.91;;;-144.79;100.00
